Time;durP1;ratioP1;P1;durP2;ratioP2;P2;SDS_P1;SDS_P2;PMS_P1;PMS_P2;Temp;Humidity;BMP_temperature;BMP_pressure;BME280_temperature;BME280_humidity;BME280_pressure;Samples;Min_cycle;Max_cycle;Signal;HPM_P1;HPM_P2
2022/01/25 00:27:53;;;;;;;11.17;7.63;;;12.50;73.60;;;;;;10521179;28;20703;-86
2022/01/25 00:32:56;;;;;;;12.03;7.83;;;12.50;73.60;;;;;;10521288;28;20255;-87
2022/01/25 00:37:59;;;;;;;12.03;7.93;;;12.50;73.60;;;;;;10521429;28;20198;-87
2022/01/25 00:43:01;;;;;;;11.47;7.03;;;12.60;73.50;;;;;;10539075;28;20239;-87
2022/01/25 00:48:06;;;;;;;13.03;8.30;;;12.60;73.30;;;;;;10521359;28;20557;-87
2022/01/25 00:58:11;;;;;;;12.60;7.47;;;12.60;73.20;;;;;;10538744;28;20197;-87
2022/01/25 01:03:13;;;;;;;10.27;7.00;;;12.60;73.20;;;;;;10503863;28;20295;-87
2022/01/25 01:08:16;;;;;;;12.23;7.60;;;12.70;73.00;;;;;;10538664;28;20604;-87
2022/01/25 01:40:07;;;;;;;10.93;6.50;;;12.30;73.90;;;;;;10537619;28;20201;-86
2022/01/25 01:45:35;;;;;;;11.47;6.13;;;12.30;74.10;;;;;;10539654;28;20230;-87
2022/01/25 01:50:39;;;;;;;10.30;6.43;;;12.50;73.70;;;;;;10521702;28;20197;-87
2022/01/25 01:55:41;;;;;;;8.10;6.27;;;11.70;73.80;;;;;;10539840;28;20198;-87
2022/01/25 02:00:46;;;;;;;9.13;6.20;;;12.40;73.90;;;;;;10505039;28;20565;-87
2022/01/25 02:05:49;;;;;;;12.20;6.43;;;12.60;73.30;;;;;;10540978;28;20213;-87
2022/01/25 02:10:52;;;;;;;8.83;6.00;;;12.50;73.40;;;;;;10527251;28;20589;-87
2022/01/25 02:15:56;;;;;;;9.33;5.70;;;12.70;73.00;;;;;;10544881;28;20198;-87
2022/01/25 02:26:20;;;;;;;9.40;5.23;;;12.60;73.00;;;;;;10526031;28;20226;-87
2022/01/25 02:31:23;;;;;;;8.03;5.90;;;12.50;72.60;;;;;;10544439;28;20259;-87
2022/01/25 02:36:28;;;;;;;11.37;5.97;;;12.50;73.00;;;;;;10526131;28;20194;-87
2022/01/25 02:41:31;;;;;;;6.80;5.30;;;12.60;73.10;;;;;;10525894;28;20214;-87
2022/01/25 02:51:41;;;;;;;8.03;4.80;;;12.70;72.70;;;;;;10525221;28;20272;-87
2022/01/25 02:56:45;;;;;;;8.27;5.27;;;12.60;72.80;;;;;;10543355;28;20198;-87
2022/01/25 03:01:49;;;;;;;6.80;4.90;;;12.60;72.70;;;;;;10542951;28;20216;-87
2022/01/25 03:06:52;;;;;;;4.93;4.40;;;12.60;72.90;;;;;;10524655;28;20198;-87
2022/01/25 03:11:56;;;;;;;8.40;5.30;;;12.60;72.80;;;;;;10542571;28;20201;-87
2022/01/25 03:22:07;;;;;;;5.67;4.37;;;12.70;72.60;;;;;;10542764;28;20189;-87
2022/01/25 03:27:10;;;;;;;5.57;4.97;;;12.60;72.50;;;;;;10523776;28;20586;-87
2022/01/25 03:32:12;;;;;;;5.73;4.13;;;12.60;72.60;;;;;;10542210;28;20221;-87
2022/01/25 03:37:15;;;;;;;8.03;5.07;;;12.60;73.00;;;;;;10523810;28;20202;-87
2022/01/25 03:42:19;;;;;;;6.70;4.27;;;12.60;72.70;;;;;;10541582;28;20232;-87
2022/01/25 03:47:30;;;;;;;7.70;5.57;;;12.60;72.60;;;;;;10541425;28;20604;-87
2022/01/25 03:52:35;;;;;;;6.63;4.50;;;12.50;72.70;;;;;;10523373;28;20563;-87
2022/01/25 03:57:38;;;;;;;6.50;4.83;;;12.60;72.80;;;;;;10540746;28;20684;-87
2022/01/25 04:02:49;;;;;;;6.27;4.37;;;12.60;73.10;;;;;;10540671;28;20218;-87
2022/01/25 04:07:52;;;;;;;6.03;3.70;;;12.60;72.60;;;;;;10540497;28;20190;-87
2022/01/25 04:13:00;;;;;;;6.30;4.30;;;12.50;72.80;;;;;;10521701;28;20246;-87
2022/01/25 04:28:46;;;;;;;5.90;4.37;;;12.60;72.60;;;;;;10410073;28;20624;-87
2022/01/25 04:49:56;;;;;;;8.70;4.77;;;12.60;72.50;;;;;;10410543;28;20614;-87
2022/01/25 04:55:18;;;;;;;6.40;4.57;;;12.50;72.60;;;;;;10410351;28;20242;-86
2022/01/25 05:00:22;;;;;;;9.93;5.43;;;12.70;72.20;;;;;;10501296;28;20250;-87
2022/01/25 05:05:35;;;;;;;5.53;4.10;;;12.70;72.00;;;;;;10538460;28;20342;-87
2022/01/25 05:10:48;;;;;;;7.37;5.30;;;12.60;72.30;;;;;;10538780;28;20202;-87
2022/01/25 05:16:04;;;;;;;7.60;5.03;;;12.60;72.10;;;;;;10538779;28;20193;-87
2022/01/25 05:26:27;;;;;;;7.47;4.63;;;12.60;72.20;;;;;;10538178;28;20251;-87
2022/01/25 05:31:32;;;;;;;6.80;4.00;;;12.50;72.50;;;;;;10538178;28;20221;-87
2022/01/25 05:36:36;;;;;;;7.50;4.50;;;12.60;72.40;;;;;;10538198;28;20194;-87
2022/01/25 05:41:40;;;;;;;8.07;4.87;;;12.40;72.70;;;;;;10542879;28;20239;-87
2022/01/25 05:46:48;;;;;;;6.20;4.23;;;12.50;72.60;;;;;;10545989;28;20606;-87
2022/01/25 05:51:50;;;;;;;7.13;5.00;;;12.60;72.40;;;;;;10546048;28;20220;-87
2022/01/25 05:56:53;;;;;;;11.17;7.13;;;12.60;72.40;;;;;;10527345;28;20590;-87
2022/01/25 06:01:55;;;;;;;7.93;5.03;;;12.40;72.50;;;;;;10527719;28;20198;-87
2022/01/25 06:06:58;;;;;;;7.13;5.63;;;12.40;72.80;;;;;;10527380;28;20581;-87
2022/01/25 06:12:01;;;;;;;7.30;4.40;;;12.30;73.40;;;;;;10544989;28;20191;-87
2022/01/25 06:17:04;;;;;;;6.03;4.40;;;12.40;73.00;;;;;;10544930;28;20194;-87
2022/01/25 06:22:07;;;;;;;7.63;4.87;;;12.50;72.80;;;;;;10526435;28;20203;-87
2022/01/25 06:27:10;;;;;;;8.47;5.33;;;12.50;72.60;;;;;;10544334;28;20310;-87
2022/01/25 06:32:13;;;;;;;6.60;4.37;;;12.60;72.40;;;;;;10544193;28;20225;-87
2022/01/25 06:37:16;;;;;;;6.13;4.50;;;12.60;72.40;;;;;;10544156;28;20194;-87
2022/01/25 06:42:19;;;;;;;6.90;5.07;;;12.60;72.50;;;;;;10543969;28;20420;-87
2022/01/25 06:47:21;;;;;;;8.10;4.70;;;12.60;72.20;;;;;;10543634;28;20217;-87
2022/01/25 06:52:24;;;;;;;6.33;5.03;;;12.50;72.30;;;;;;10542559;28;20194;-87
2022/01/25 06:57:27;;;;;;;7.77;4.73;;;12.60;72.50;;;;;;10543164;28;20247;-87
2022/01/25 07:02:29;;;;;;;8.53;5.50;;;12.70;72.00;;;;;;10543438;28;20201;-87
2022/01/25 07:07:32;;;;;;;6.53;4.50;;;12.60;72.10;;;;;;10524637;28;20225;-87
2022/01/25 07:12:35;;;;;;;7.17;4.60;;;12.70;72.10;;;;;;10543107;28;20569;-87
2022/01/25 07:17:37;;;;;;;6.93;5.03;;;12.70;71.90;;;;;;10542521;28;20193;-87
2022/01/25 07:22:40;;;;;;;8.30;5.40;;;12.60;72.20;;;;;;10524201;28;20577;-87
2022/01/25 07:27:43;;;;;;;8.70;5.00;;;12.50;72.30;;;;;;10541712;28;20210;-87
2022/01/25 07:32:46;;;;;;;7.53;4.97;;;12.60;71.80;;;;;;10541902;28;20228;-87
2022/01/25 07:37:51;;;;;;;7.93;6.23;;;12.40;72.70;;;;;;10541737;28;20262;-87
2022/01/25 07:42:55;;;;;;;7.87;4.97;;;12.50;72.30;;;;;;10541516;28;20232;-87
2022/01/25 07:48:03;;;;;;;8.77;4.53;;;12.60;72.40;;;;;;10523367;28;20554;-87
2022/01/25 07:53:05;;;;;;;7.07;4.57;;;12.60;72.00;;;;;;10541070;28;20231;-87
2022/01/25 07:58:08;;;;;;;5.77;4.40;;;12.60;71.90;;;;;;10540941;28;20647;-87
2022/01/25 08:03:10;;;;;;;11.03;6.47;;;12.70;71.80;;;;;;10522276;28;20202;-87
2022/01/25 08:08:34;;;;;;;8.53;5.33;;;12.60;71.80;;;;;;10505239;28;20627;-87
2022/01/25 08:14:21;;;;;;;9.03;6.20;;;12.70;71.80;;;;;;10520303;28;20577;-87
2022/01/25 08:19:47;;;;;;;9.33;6.63;;;12.60;72.10;;;;;;10494006;28;20622;-87
2022/01/25 08:24:53;;;;;;;6.23;5.10;;;12.70;71.70;;;;;;10539948;28;20698;-87
2022/01/25 08:30:14;;;;;;;13.53;8.33;;;12.80;71.40;;;;;;10490235;28;20588;-87
2022/01/25 08:35:26;;;;;;;8.00;5.00;;;12.50;71.00;;;;;;10489341;28;20636;-87
2022/01/25 08:40:43;;;;;;;8.50;5.33;;;12.60;71.70;;;;;;10521943;28;20205;-87
2022/01/25 08:46:08;;;;;;;9.63;5.97;;;12.70;71.70;;;;;;10517065;28;20222;-87
2022/01/25 08:51:25;;;;;;;10.10;6.07;;;12.70;71.80;;;;;;10523142;28;20274;-87
2022/01/25 08:56:55;;;;;;;9.13;5.17;;;12.80;71.60;;;;;;10505639;28;20214;-87
2022/01/25 09:02:15;;;;;;;10.23;6.07;;;12.90;71.40;;;;;;10496410;28;20207;-87
2022/01/25 09:07:18;;;;;;;13.17;6.33;;;12.80;71.50;;;;;;10504395;28;20221;-87
2022/01/25 09:12:20;;;;;;;10.00;5.97;;;12.90;71.10;;;;;;10520509;28;20277;-87
2022/01/25 09:17:23;;;;;;;7.23;5.20;;;12.60;71.40;;;;;;10545007;28;20190;-87
2022/01/25 09:22:25;;;;;;;7.60;5.20;;;12.60;71.90;;;;;;10547094;28;20194;-87
2022/01/25 09:27:48;;;;;;;7.40;4.90;;;12.20;72.90;;;;;;10546577;28;20213;-87
2022/01/25 09:32:50;;;;;;;5.63;4.90;;;12.80;71.60;;;;;;10546803;28;20599;-87
2022/01/25 09:37:53;;;;;;;6.30;4.33;;;12.80;71.30;;;;;;10546452;28;20231;-87
2022/01/25 09:42:57;;;;;;;7.77;5.07;;;12.90;71.20;;;;;;10546453;28;20224;-87
2022/01/25 09:48:00;;;;;;;5.97;4.77;;;12.90;71.20;;;;;;10528108;28;20586;-88
2022/01/25 09:53:09;;;;;;;7.03;5.10;;;12.90;71.00;;;;;;10529316;28;20608;-87
2022/01/25 09:58:13;;;;;;;7.77;4.60;;;12.80;71.20;;;;;;10510773;28;20215;-87
2022/01/25 10:03:32;;;;;;;8.70;5.33;;;12.90;71.00;;;;;;10527198;28;20203;-87
2022/01/25 10:08:37;;;;;;;9.13;5.00;;;13.00;70.80;;;;;;10527314;28;20674;-87
2022/01/25 10:13:42;;;;;;;7.07;4.90;;;12.90;70.90;;;;;;10545069;28;20247;-87
2022/01/25 10:18:49;;;;;;;9.00;5.37;;;12.90;71.00;;;;;;10527082;28;20195;-87
2022/01/25 10:24:17;;;;;;;11.20;5.80;;;13.00;70.90;;;;;;10526635;28;20574;-87
2022/01/25 10:29:24;;;;;;;9.17;5.23;;;12.80;71.30;;;;;;10543007;28;20256;-87
2022/01/25 10:34:31;;;;;;;7.63;5.03;;;12.80;71.50;;;;;;10544431;28;20203;-87
2022/01/25 10:39:36;;;;;;;7.13;4.90;;;12.80;71.20;;;;;;10544276;28;20248;-87
2022/01/25 10:44:48;;;;;;;11.07;5.87;;;12.60;71.60;;;;;;10543852;28;20232;-85
2022/01/25 10:49:51;;;;;;;5.93;3.97;;;12.80;71.60;;;;;;10525628;28;20566;-87
2022/01/25 10:54:53;;;;;;;9.20;5.40;;;12.60;72.10;;;;;;10525865;28;20195;-87
2022/01/25 10:59:58;;;;;;;8.07;5.37;;;12.60;72.00;;;;;;10543355;28;20226;-87
2022/01/25 11:05:08;;;;;;;7.53;4.97;;;12.70;71.60;;;;;;10543057;28;20221;-87
2022/01/25 11:10:20;;;;;;;7.90;5.67;;;12.30;72.60;;;;;;10542954;28;20211;-88
2022/01/25 11:15:23;;;;;;;8.53;6.23;;;12.80;71.60;;;;;;10542669;28;20608;-87
2022/01/25 11:20:26;;;;;;;15.03;8.70;;;12.90;71.20;;;;;;10542732;28;20218;-86
2022/01/25 11:25:29;;;;;;;8.20;5.07;;;12.50;70.70;;;;;;10542140;28;20617;-87
2022/01/25 11:30:32;;;;;;;7.53;4.83;;;12.90;71.40;;;;;;10542181;28;20222;-87
2022/01/25 11:35:36;;;;;;;11.97;7.17;;;12.90;71.30;;;;;;10541856;28;20191;-87
2022/01/25 11:40:44;;;;;;;8.97;5.20;;;12.90;70.90;;;;;;10541132;28;20200;-87
2022/01/25 11:45:49;;;;;;;6.53;5.10;;;12.90;71.40;;;;;;10523418;28;20288;-87
2022/01/25 11:50:52;;;;;;;5.50;4.63;;;12.70;71.70;;;;;;10541274;28;20216;-87
2022/01/25 11:55:55;;;;;;;8.93;6.53;;;12.90;71.40;;;;;;10522348;28;20748;-87
2022/01/25 12:01:00;;;;;;;6.53;4.90;;;12.80;71.70;;;;;;10540993;28;20195;-87
2022/01/25 12:06:06;;;;;;;9.33;5.87;;;12.90;71.60;;;;;;10522644;28;20232;-87
2022/01/25 12:11:30;;;;;;;8.63;5.50;;;13.00;71.30;;;;;;10522041;28;20260;-87
2022/01/25 12:16:43;;;;;;;5.87;4.33;;;13.10;71.10;;;;;;10522316;28;20225;-87
2022/01/25 12:21:47;;;;;;;7.90;5.77;;;13.00;71.40;;;;;;10540582;28;20220;-87
2022/01/25 12:27:09;;;;;;;9.47;5.40;;;12.70;72.10;;;;;;10539713;28;20638;-87
2022/01/25 12:32:35;;;;;;;6.07;4.90;;;12.90;71.70;;;;;;10521432;28;20640;-87
2022/01/25 12:37:44;;;;;;;7.10;5.07;;;12.90;71.90;;;;;;10521161;28;20283;-87
2022/01/25 12:42:47;;;;;;;9.07;5.93;;;12.90;71.90;;;;;;10538746;28;20552;-87
2022/01/25 12:48:08;;;;;;;6.07;4.83;;;13.00;71.70;;;;;;10521639;28;20262;-87
2022/01/25 12:53:16;;;;;;;6.50;4.83;;;12.90;72.00;;;;;;10538996;28;20252;-87
2022/01/25 12:58:21;;;;;;;6.97;5.03;;;12.90;72.00;;;;;;10520449;28;20581;-87
2022/01/25 13:03:34;;;;;;;6.30;5.03;;;12.60;72.70;;;;;;10503772;28;20203;-87
2022/01/25 13:08:50;;;;;;;7.80;5.43;;;13.00;71.80;;;;;;10538650;28;20209;-87
2022/01/25 13:19:00;;;;;;;7.17;4.30;;;13.00;71.90;;;;;;10538762;28;20194;-87
2022/01/25 13:24:07;;;;;;;6.50;5.10;;;13.00;71.90;;;;;;10520618;28;20216;-87
2022/01/25 13:34:36;;;;;;;7.70;6.10;;;13.00;72.10;;;;;;10538427;28;20191;-87
2022/01/25 13:39:40;;;;;;;8.63;5.23;;;12.70;72.80;;;;;;10537912;28;20255;-87
2022/01/25 13:50:04;;;;;;;8.53;5.43;;;12.80;72.80;;;;;;10537570;28;20201;-87
2022/01/25 13:55:10;;;;;;;8.00;5.27;;;12.80;72.50;;;;;;10537857;28;20195;-87
2022/01/25 14:00:13;;;;;;;7.00;5.20;;;12.90;72.40;;;;;;10520551;28;20562;-87
2022/01/25 14:05:16;;;;;;;5.60;4.73;;;13.00;72.30;;;;;;10545669;28;20250;-87
2022/01/25 14:10:24;;;;;;;6.67;4.80;;;12.90;72.40;;;;;;10545331;28;20187;-87
2022/01/25 14:26:11;;;;;;;8.43;5.50;;;12.90;72.60;;;;;;10544752;28;20229;-87
2022/01/25 14:31:20;;;;;;;6.60;5.13;;;12.90;72.30;;;;;;10544373;28;20631;-87
2022/01/25 14:36:25;;;;;;;8.27;5.77;;;12.80;72.60;;;;;;10544501;28;20228;-87
2022/01/25 14:41:31;;;;;;;7.00;5.57;;;12.70;72.80;;;;;;10526270;28;20199;-87
2022/01/25 14:46:40;;;;;;;6.10;4.97;;;12.80;72.80;;;;;;10544080;28;20220;-87
2022/01/25 14:51:44;;;;;;;7.90;4.90;;;12.70;73.10;;;;;;10543630;28;20264;-86
2022/01/25 14:56:51;;;;;;;7.27;5.23;;;12.50;73.50;;;;;;10508544;28;20215;-87
2022/01/25 15:02:00;;;;;;;7.60;5.37;;;12.80;73.00;;;;;;10525479;28;20265;-87
2022/01/25 15:07:14;;;;;;;9.70;5.33;;;12.60;73.50;;;;;;10543058;28;20264;-87
2022/01/25 15:12:18;;;;;;;7.73;4.70;;;12.60;73.70;;;;;;10507425;28;20253;-87
2022/01/25 15:17:21;;;;;;;8.37;5.23;;;12.70;73.50;;;;;;10542737;28;20536;-87
2022/01/25 15:22:25;;;;;;;5.27;4.47;;;12.70;73.20;;;;;;10524635;28;20609;-87
2022/01/25 15:27:30;;;;;;;6.97;4.87;;;12.80;73.20;;;;;;10523844;28;20296;-87
2022/01/25 15:32:32;;;;;;;7.57;4.90;;;12.90;73.00;;;;;;10524053;28;20221;-87
2022/01/25 15:37:35;;;;;;;6.83;5.00;;;13.00;72.80;;;;;;10541839;28;20562;-86
2022/01/25 15:42:38;;;;;;;7.67;5.33;;;13.00;72.70;;;;;;10541570;28;20199;-87
2022/01/25 15:47:41;;;;;;;7.07;4.83;;;13.00;72.90;;;;;;10541369;28;20235;-87
2022/01/25 15:52:43;;;;;;;7.67;5.63;;;12.90;72.90;;;;;;10523751;28;20232;-87
2022/01/25 15:57:50;;;;;;;9.43;5.47;;;12.90;73.00;;;;;;10522774;28;20571;-87
2022/01/25 16:02:52;;;;;;;7.20;5.57;;;12.80;73.10;;;;;;10522961;28;20583;-87
2022/01/25 16:07:55;;;;;;;6.37;5.30;;;12.90;72.90;;;;;;10522775;28;20249;-87
2022/01/25 16:12:57;;;;;;;7.53;5.20;;;12.90;73.00;;;;;;10540531;28;20252;-87
2022/01/25 16:18:00;;;;;;;5.83;4.73;;;12.90;73.00;;;;;;10540250;28;20204;-87
2022/01/25 16:23:05;;;;;;;8.43;5.83;;;13.00;73.00;;;;;;10522108;28;20196;-86
2022/01/25 16:28:09;;;;;;;5.73;4.80;;;13.00;73.00;;;;;;10539831;28;20307;-87
2022/01/25 16:33:11;;;;;;;8.47;5.20;;;13.00;72.90;;;;;;10505103;28;20198;-86
2022/01/25 16:38:15;;;;;;;10.73;5.90;;;13.00;73.00;;;;;;10521096;28;20573;-87
2022/01/25 16:43:17;;;;;;;9.27;5.80;;;13.00;72.80;;;;;;10521423;28;20207;-86
2022/01/25 16:48:20;;;;;;;6.97;5.20;;;13.00;72.90;;;;;;10521321;28;20223;-87
2022/01/25 16:53:22;;;;;;;6.53;5.33;;;13.00;72.90;;;;;;10539342;28;20196;-87
2022/01/25 16:58:25;;;;;;;10.37;6.20;;;12.90;73.10;;;;;;10538828;28;20265;-87
2022/01/25 17:03:27;;;;;;;8.80;5.87;;;12.90;73.10;;;;;;10521369;28;20557;-87
2022/01/25 17:08:30;;;;;;;5.60;4.97;;;12.90;73.30;;;;;;10520696;28;20224;-87
2022/01/25 17:13:35;;;;;;;7.57;5.90;;;12.80;73.50;;;;;;10520738;28;20224;-87
2022/01/25 17:18:38;;;;;;;9.07;5.87;;;13.00;73.00;;;;;;10538599;28;20221;-87
2022/01/25 17:23:40;;;;;;;7.90;5.87;;;13.00;72.90;;;;;;10520682;28;20244;-87
2022/01/25 17:28:42;;;;;;;10.33;6.53;;;13.00;72.90;;;;;;10538075;28;20563;-87
2022/01/25 17:33:45;;;;;;;9.47;6.10;;;13.00;72.90;;;;;;10538089;28;20195;-87
2022/01/25 17:38:47;;;;;;;9.17;5.53;;;13.00;73.00;;;;;;10545082;28;20244;-87
2022/01/25 17:43:50;;;;;;;8.30;5.27;;;12.90;73.40;;;;;;10546609;28;20565;-87
2022/01/25 17:48:53;;;;;;;8.30;5.90;;;13.00;73.20;;;;;;10546527;28;20270;-87
2022/01/25 17:53:56;;;;;;;5.60;5.00;;;12.90;73.30;;;;;;10546152;28;20236;-87
2022/01/25 17:58:58;;;;;;;6.57;5.33;;;12.90;73.60;;;;;;10527886;28;20248;-87
2022/01/25 18:04:02;;;;;;;7.33;5.70;;;12.90;73.40;;;;;;10545759;28;20605;-87
2022/01/25 18:09:07;;;;;;;7.77;6.27;;;12.90;73.30;;;;;;10545333;28;20224;-87
2022/01/25 18:14:10;;;;;;;8.90;6.23;;;13.00;73.40;;;;;;10545285;28;20266;-87
2022/01/25 18:19:13;;;;;;;9.57;7.00;;;13.00;73.30;;;;;;10527375;28;20195;-87
2022/01/25 18:24:20;;;;;;;7.50;5.80;;;12.90;73.30;;;;;;10544974;28;20543;-87
2022/01/25 18:29:22;;;;;;;7.93;6.17;;;12.90;73.40;;;;;;10544691;28;20294;-87
2022/01/25 18:34:25;;;;;;;9.07;7.10;;;12.80;73.60;;;;;;10525829;28;20664;-87
2022/01/25 18:39:27;;;;;;;10.00;6.50;;;12.70;73.70;;;;;;10526806;28;20195;-87
2022/01/25 18:44:30;;;;;;;8.53;5.87;;;12.90;73.50;;;;;;10509159;28;20240;-87
2022/01/25 18:49:36;;;;;;;8.23;6.43;;;12.80;73.70;;;;;;10524723;28;20215;-87
2022/01/25 18:54:41;;;;;;;8.77;6.07;;;12.90;73.80;;;;;;10525622;28;20605;-87
2022/01/25 18:59:49;;;;;;;7.77;5.70;;;12.90;73.70;;;;;;10543403;28;20202;-87
2022/01/25 19:04:51;;;;;;;10.50;6.80;;;12.70;74.00;;;;;;10543151;28;20198;-87
2022/01/25 19:09:54;;;;;;;8.57;5.40;;;12.80;73.70;;;;;;10543329;28;20272;-87
2022/01/25 19:14:56;;;;;;;7.20;5.60;;;12.90;73.70;;;;;;10507981;28;20252;-87
2022/01/25 19:19:58;;;;;;;10.73;6.57;;;12.90;73.60;;;;;;10542543;28;20295;-87
2022/01/25 19:25:04;;;;;;;7.40;5.63;;;12.70;74.10;;;;;;10507350;28;20265;-87
2022/01/25 19:30:09;;;;;;;8.00;6.50;;;12.80;74.00;;;;;;10541877;28;20232;-87
2022/01/25 19:35:12;;;;;;;8.33;5.80;;;12.90;73.80;;;;;;10523685;28;20248;-87
2022/01/25 19:40:16;;;;;;;9.37;6.20;;;13.00;73.50;;;;;;10523901;28;20200;-87
2022/01/25 19:45:18;;;;;;;9.30;5.97;;;13.00;73.50;;;;;;10541544;28;20206;-87
2022/01/25 19:50:23;;;;;;;8.60;6.53;;;13.00;73.50;;;;;;10541446;28;20221;-87
2022/01/25 19:55:32;;;;;;;10.30;6.97;;;13.00;73.30;;;;;;10522884;28;20225;-87
2022/01/25 20:00:40;;;;;;;7.70;5.53;;;12.80;73.70;;;;;;10539950;28;20207;-87
2022/01/25 20:05:42;;;;;;;8.53;6.20;;;12.80;74.20;;;;;;10522092;28;20206;-86
2022/01/25 20:10:46;;;;;;;14.57;9.77;;;12.80;74.00;;;;;;10522718;28;20190;-87
2022/01/25 20:15:57;;;;;;;8.60;6.03;;;12.50;74.00;;;;;;10522665;28;20745;-87
2022/01/25 20:31:17;;;;;;;6.67;4.93;;;13.00;73.60;;;;;;10540734;28;20291;-87
2022/01/25 20:36:22;;;;;;;7.87;5.83;;;13.00;73.50;;;;;;10521351;28;20236;-87
2022/01/25 20:41:24;;;;;;;8.37;6.70;;;13.00;73.40;;;;;;10521341;28;20212;-86
2022/01/25 20:46:27;;;;;;;7.70;5.30;;;13.00;73.50;;;;;;10521582;28;20615;-87
2022/01/25 20:51:30;;;;;;;7.33;5.43;;;12.90;73.60;;;;;;10539757;28;20240;-87
2022/01/25 20:56:32;;;;;;;7.20;5.70;;;12.30;75.20;;;;;;10520868;28;20625;-87
2022/01/25 21:01:35;;;;;;;9.60;6.30;;;12.80;74.10;;;;;;10539014;28;20557;-87
2022/01/25 21:06:45;;;;;;;6.03;4.90;;;12.90;73.90;;;;;;10521122;28;20212;-87
2022/01/25 21:11:52;;;;;;;5.73;4.97;;;12.90;74.00;;;;;;10520115;28;20201;-87
2022/01/25 21:16:55;;;;;;;8.03;5.33;;;13.00;73.60;;;;;;10538826;28;20563;-87
2022/01/25 21:21:58;;;;;;;7.50;5.53;;;13.00;73.50;;;;;;10538720;28;20229;-87
2022/01/25 21:27:00;;;;;;;6.47;5.27;;;13.00;73.80;;;;;;10538248;28;20238;-87
2022/01/25 21:32:04;;;;;;;6.43;5.13;;;13.00;73.50;;;;;;10520859;28;20271;-86
2022/01/25 21:37:06;;;;;;;7.23;5.37;;;13.00;73.40;;;;;;10519681;28;20258;-87
2022/01/25 21:42:09;;;;;;;8.20;5.87;;;13.00;73.70;;;;;;10503223;28;20214;-87
2022/01/25 21:47:11;;;;;;;7.60;5.13;;;12.70;74.30;;;;;;10520099;28;20273;-87
2022/01/25 21:52:13;;;;;;;6.90;5.40;;;12.80;74.10;;;;;;10520193;28;20693;-87
2022/01/25 21:57:16;;;;;;;9.10;5.77;;;12.80;74.30;;;;;;10538079;28;20254;-87
2022/01/25 22:02:20;;;;;;;7.30;5.27;;;12.90;73.90;;;;;;10537940;28;20195;-87
2022/01/25 22:07:23;;;;;;;4.83;4.33;;;13.00;73.70;;;;;;10537758;28;20260;-87
2022/01/25 22:12:43;;;;;;;6.43;5.23;;;13.00;73.60;;;;;;10519325;28;20617;-87
2022/01/25 22:17:49;;;;;;;9.63;7.17;;;13.10;73.60;;;;;;10519261;28;20267;-87
2022/01/25 22:22:51;;;;;;;6.27;4.77;;;12.90;73.40;;;;;;10540657;28;20220;-87
2022/01/25 22:27:54;;;;;;;11.33;5.83;;;12.90;73.80;;;;;;10544379;28;20281;-87
2022/01/25 22:32:56;;;;;;;8.73;5.90;;;12.90;74.10;;;;;;10526360;28;20548;-87
2022/01/25 22:37:59;;;;;;;6.20;4.60;;;13.00;73.70;;;;;;10526668;28;20195;-87
2022/01/25 22:43:04;;;;;;;5.27;4.40;;;12.90;73.80;;;;;;10525913;28;20264;-87
2022/01/25 22:48:14;;;;;;;6.30;4.60;;;12.80;74.10;;;;;;10525703;28;20284;-87
2022/01/25 22:53:17;;;;;;;7.63;5.00;;;12.70;74.40;;;;;;10526092;28;20558;-86
2022/01/25 22:58:20;;;;;;;6.03;4.83;;;12.70;74.50;;;;;;10543520;28;20237;-87
2022/01/25 23:03:22;;;;;;;7.90;5.03;;;12.80;74.30;;;;;;10543386;28;20194;-87
2022/01/25 23:08:25;;;;;;;8.10;6.20;;;12.50;75.20;;;;;;10528039;28;20269;-86
2022/01/25 23:14:05;;;;;;;4.97;4.47;;;12.60;74.70;;;;;;10501047;28;20230;-87
2022/01/25 23:19:24;;;;;;;6.37;4.57;;;12.70;74.70;;;;;;10500901;28;20196;-87
2022/01/25 23:24:27;;;;;;;6.53;4.70;;;12.60;74.70;;;;;;10500844;28;20191;-87
2022/01/25 23:29:30;;;;;;;4.97;4.47;;;12.40;75.50;;;;;;10500477;28;20281;-86
2022/01/25 23:35:00;;;;;;;6.17;4.37;;;12.40;75.50;;;;;;10499388;28;20218;-87
2022/01/25 23:40:04;;;;;;;7.07;4.70;;;12.60;75.20;;;;;;10500068;28;20545;-87
2022/01/25 23:45:08;;;;;;;7.03;4.90;;;12.60;75.20;;;;;;10499885;28;20685;-87
2022/01/25 23:50:26;;;;;;;4.80;4.30;;;12.50;74.70;;;;;;10499689;28;20215;-87
